Penguin Arrow — C6PA6 — position and weather

sailwx.info

Track history (hours):
 
Tides and Currents Weather Stations Pressure Air Temp Water Temp Dewpoint Dewpoint Depression Visibility Wind Speed Wind Dir Waves Ship Positions

Penguin Arrow

Last reported at 2015-Jun-18 02:15 UTC. Time now 2015-Jul-06 07:02 UTC.
Position N 34°27' E 135°07'.
Warning: this ship's position is 18 days out of date.

Length 200 m; draft 8.1 m.

Type: Cargo ship. MMSI: 309927000.

Date/timePositionNaut miles runAvg speedWind from/ knotsBaromVisibWave heightAir tempDewpointWater temp
2015-Jun-18 02:15N 34°27' E 135°07'1014.4
2015-Jun-18 01:33N 34°33' E 135°16'8 6.8
2015-Jun-18 00:24N 34°38' E 135°24'0 0.0
2015-Jun-17 23:23N 34°38' E 135°24'0 0.0
2015-Jun-17 22:30N 34°38' E 135°24'0 0.0
2015-Jun-17 21:23N 34°38' E 135°24'0 0.0
2015-Jun-17 20:23N 34°38' E 135°24'0 0.0
2015-Jun-17 19:30N 34°38' E 135°24'0 0.0
2015-Jun-17 18:29N 34°38' E 135°24'0 0.0
2015-Jun-17 17:29N 34°38' E 135°24'0 0.0
2015-Jun-17 16:29N 34°38' E 135°24'0 0.0
2015-Jun-17 15:29N 34°38' E 135°24'0 0.0
2015-Jun-17 14:30N 34°38' E 135°24'0 0.0
2015-Jun-17 13:30N 34°38' E 135°24'0 0.0
2015-Jun-17 12:29N 34°38' E 135°24'0 0.0
2015-Jun-17 11:29N 34°38' E 135°24'0 0.0
2015-Jun-17 10:23N 34°38' E 135°24'0 0.0
2015-Jun-17 09:23N 34°38' E 135°24'0 0.0
2015-Jun-17 08:29N 34°38' E 135°24'0 0.0
2015-Jun-17 07:30N 34°38' E 135°24'0 0.0
2015-Jun-17 06:29N 34°38' E 135°24'0 0.0
2015-Jun-17 04:24N 34°38' E 135°24'0 0.0
2015-Jun-17 03:23N 34°38' E 135°24'0 0.0
2015-Jun-17 02:17N 34°38' E 135°24'0 0.0
2015-Jun-17 01:29N 34°38' E 135°24'0 0.0
2015-Jun-16 23:29N 34°38' E 135°24'0 0.0
2015-Jun-16 22:29N 34°38' E 135°24'0 0.0
2015-Jun-16 21:18N 34°38' E 135°24'0 0.0
2015-Jun-16 20:29N 34°38' E 135°24'0 0.0
2015-Jun-16 19:29N 34°38' E 135°24'0 0.0
2015-Jun-16 18:30N 34°38' E 135°24'0 0.0
2015-Jun-16 17:29N 34°38' E 135°24'0 0.0
2015-Jun-16 16:29N 34°38' E 135°24'0 0.0
2015-Jun-16 15:23N 34°38' E 135°24'0 0.0
2015-Jun-16 14:23N 34°38' E 135°24'0 0.0
2015-Jun-16 13:29N 34°38' E 135°24'0 0.0
2015-Jun-16 12:23N 34°38' E 135°24'0 0.0
2015-Jun-16 11:29N 34°38' E 135°24'0 0.0
2015-Jun-16 10:29N 34°38' E 135°24'0 0.0
2015-Jun-16 09:29N 34°38' E 135°24'0 0.0
2015-Jun-16 08:29N 34°38' E 135°24'0 0.0
2015-Jun-16 07:11N 34°38' E 135°24'0 0.2
2015-Jun-16 05:34N 34°38' E 135°24'1111.4
2015-Jun-16 04:33N 34°30' E 135°14'  
2015-Jun-12 11:33N 35°04' E 139°41'1211.7
2015-Jun-12 10:33N 35°15' E 139°46'1212.0
2015-Jun-12 09:33N 35°27' E 139°43'1 0.2
2015-Jun-12 00:12N 35°28' E 139°42'0 0.0
2015-Jun-11 17:24N 35°28' E 139°42'0 0.0
2015-Jun-11 12:24N 35°28' E 139°42'2 0.1
2015-Jun-10 22:33N 35°27' E 139°43'8 7.1
2015-Jun-10 21:22N 35°19' E 139°44'911.2
2015-Jun-10 20:32N 35°09' E 139°47'  
Track history (hours):
 
Tides and Currents Weather Stations Pressure Air Temp Water Temp Dewpoint Dewpoint Depression Visibility Wind Speed Wind Dir Waves Ship Positions

Penguin Arrow

Last reported at 2015-Jun-18 02:15 UTC. Time now 2015-Jul-06 07:02 UTC.
Position N 34°27' E 135°07'.
Warning: this ship's position is 18 days out of date.

Length 200 m; draft 8.1 m.

Type: Cargo ship. MMSI: 309927000.

Date/timePositionNaut miles runAvg speedWind from/ knotsBaromVisibWave heightAir tempDewpointWater temp
2015-Jun-18 02:15N 34°27' E 135°07'1014.4
2015-Jun-18 01:33N 34°33' E 135°16'8 6.8
2015-Jun-18 00:24N 34°38' E 135°24'0 0.0
2015-Jun-17 23:23N 34°38' E 135°24'0 0.0
2015-Jun-17 22:30N 34°38' E 135°24'0 0.0
2015-Jun-17 21:23N 34°38' E 135°24'0 0.0
2015-Jun-17 20:23N 34°38' E 135°24'0 0.0
2015-Jun-17 19:30N 34°38' E 135°24'0 0.0
2015-Jun-17 18:29N 34°38' E 135°24'0 0.0
2015-Jun-17 17:29N 34°38' E 135°24'0 0.0
2015-Jun-17 16:29N 34°38' E 135°24'0 0.0
2015-Jun-17 15:29N 34°38' E 135°24'0 0.0
2015-Jun-17 14:30N 34°38' E 135°24'0 0.0
2015-Jun-17 13:30N 34°38' E 135°24'0 0.0
2015-Jun-17 12:29N 34°38' E 135°24'0 0.0
2015-Jun-17 11:29N 34°38' E 135°24'0 0.0
2015-Jun-17 10:23N 34°38' E 135°24'0 0.0
2015-Jun-17 09:23N 34°38' E 135°24'0 0.0
2015-Jun-17 08:29N 34°38' E 135°24'0 0.0
2015-Jun-17 07:30N 34°38' E 135°24'0 0.0
2015-Jun-17 06:29N 34°38' E 135°24'0 0.0
2015-Jun-17 04:24N 34°38' E 135°24'0 0.0
2015-Jun-17 03:23N 34°38' E 135°24'0 0.0
2015-Jun-17 02:17N 34°38' E 135°24'0 0.0
2015-Jun-17 01:29N 34°38' E 135°24'0 0.0
2015-Jun-16 23:29N 34°38' E 135°24'0 0.0
2015-Jun-16 22:29N 34°38' E 135°24'0 0.0
2015-Jun-16 21:18N 34°38' E 135°24'0 0.0
2015-Jun-16 20:29N 34°38' E 135°24'0 0.0
2015-Jun-16 19:29N 34°38' E 135°24'0 0.0
2015-Jun-16 18:30N 34°38' E 135°24'0 0.0
2015-Jun-16 17:29N 34°38' E 135°24'0 0.0
2015-Jun-16 16:29N 34°38' E 135°24'0 0.0
2015-Jun-16 15:23N 34°38' E 135°24'0 0.0
2015-Jun-16 14:23N 34°38' E 135°24'0 0.0
2015-Jun-16 13:29N 34°38' E 135°24'0 0.0
2015-Jun-16 12:23N 34°38' E 135°24'0 0.0
2015-Jun-16 11:29N 34°38' E 135°24'0 0.0
2015-Jun-16 10:29N 34°38' E 135°24'0 0.0
2015-Jun-16 09:29N 34°38' E 135°24'0 0.0
2015-Jun-16 08:29N 34°38' E 135°24'0 0.0
2015-Jun-16 07:11N 34°38' E 135°24'0 0.2
2015-Jun-16 05:34N 34°38' E 135°24'1111.4
2015-Jun-16 04:33N 34°30' E 135°14'  
2015-Jun-12 11:33N 35°04' E 139°41'1211.7
2015-Jun-12 10:33N 35°15' E 139°46'1212.0
2015-Jun-12 09:33N 35°27' E 139°43'1 0.2
2015-Jun-12 00:12N 35°28' E 139°42'0 0.0
2015-Jun-11 17:24N 35°28' E 139°42'0 0.0
2015-Jun-11 12:24N 35°28' E 139°42'2 0.1
2015-Jun-10 22:33N 35°27' E 139°43'8 7.1
2015-Jun-10 21:22N 35°19' E 139°44'911.2
2015-Jun-10 20:32N 35°09' E 139°47'  

Dump ship's entire track history